Main page
METAR-TAF:

METAR-TAF

Airports :

Clayton Municipal Airpark

Clayton, New Mexico, United States

latitude: 36-26-54N, longitude: 103-09-11W, elevation: 4963 ft

Current weather observation

The report was made 57 minutes ago, at 16:55 UTC
Wind 22 mph from the Southwest with gusts up to 36 mph
Temperature 79°F
Humidity 48%
Pressure 30.01 in. Hg
Visibility: 10 miles
Clear sky

METAR: KCAO 151655Z AUTO 23019G31KT 10SM CLR 26/14 A3001 RMK AO2 PK WND 21036/1640 SLP100 T02560144 $

Time: 11:52 (17:52 UTC)


TAF: missing

Weather observations and forecasts of more than 4000 airports (METAR and TAF reports).

The available stations are represented by yellow and red dots on the map.

Hover mouse over dot to see the name of the station.

Then click to see weather observations and forecasts.

To change the map : click on the green buttons with a black cross to zoom in, on the green button with a dash to zoom out, or on the green arrows for adjacent maps.


METAR-TAF: